Time;durP1;ratioP1;P1;durP2;ratioP2;P2;SDS_P1;SDS_P2;PMS_P1;PMS_P2;Temp;Humidity;BMP_temperature;BMP_pressure;BME280_temperature;BME280_humidity;BME280_pressure;Samples;Min_cycle;Max_cycle;Signal;HPM_P1;HPM_P2
2022/11/29 00:00:40;;;;;;;89.20;19.40;;;8.80;99.90;;;;;;5110762;28;20027;-64
2022/11/29 00:03:06;;;;;;;80.28;18.35;;;8.80;99.90;;;;;;5107894;28;20091;-65
2022/11/29 00:05:35;;;;;;;92.80;20.73;;;8.80;99.90;;;;;;5112865;28;20024;-64
2022/11/29 00:08:00;;;;;;;84.20;21.17;;;8.80;99.90;;;;;;5113018;28;20035;-64
2022/11/29 00:10:26;;;;;;;78.47;19.95;;;8.80;99.90;;;;;;5113038;28;20396;-64
2022/11/29 00:12:52;;;;;;;85.10;19.30;;;8.80;99.90;;;;;;5109464;28;20126;-64
2022/11/29 00:15:17;;;;;;;81.80;20.10;;;8.80;99.90;;;;;;5112569;28;20043;-64
2022/11/29 00:17:43;;;;;;;77.07;19.20;;;8.70;99.90;;;;;;5112402;28;20148;-65
2022/11/29 00:20:10;;;;;;;83.30;19.20;;;8.80;99.90;;;;;;5111822;28;20048;-64
2022/11/29 00:22:35;;;;;;;105.78;21.27;;;8.80;99.90;;;;;;5108583;28;20043;-65
2022/11/29 00:25:01;;;;;;;100.60;20.58;;;8.80;99.90;;;;;;5105531;28;20051;-65
2022/11/29 00:27:27;;;;;;;104.32;22.02;;;8.80;99.90;;;;;;5111282;28;20054;-65
2022/11/29 00:29:53;;;;;;;97.57;21.30;;;8.80;99.90;;;;;;5109747;28;20038;-65
2022/11/29 00:32:18;;;;;;;113.97;22.02;;;8.80;99.90;;;;;;5118139;27;20044;-65
2022/11/29 00:34:44;;;;;;;97.30;23.00;;;8.80;99.90;;;;;;5112036;28;20431;-65
2022/11/29 00:37:09;;;;;;;101.07;22.42;;;8.70;99.90;;;;;;5112863;28;20042;-65
2022/11/29 00:39:35;;;;;;;93.07;22.27;;;8.70;99.90;;;;;;5107699;28;20032;-65
2022/11/29 00:42:01;;;;;;;95.38;22.05;;;8.80;99.90;;;;;;5111484;28;20031;-65
2022/11/29 00:44:27;;;;;;;102.10;22.02;;;8.80;99.90;;;;;;5112698;28;20505;-66
2022/11/29 00:46:52;;;;;;;98.50;21.63;;;8.70;99.90;;;;;;5104903;28;20073;-65
2022/11/29 00:49:18;;;;;;;102.57;21.88;;;8.80;99.90;;;;;;5118258;27;20043;-65
2022/11/29 00:51:44;;;;;;;99.00;21.13;;;8.80;99.90;;;;;;5109472;27;20047;-65
2022/11/29 00:54:09;;;;;;;101.63;20.77;;;8.80;99.90;;;;;;5110819;28;20458;-65
2022/11/29 00:56:35;;;;;;;86.75;19.70;;;8.70;99.90;;;;;;5113384;28;20078;-65
2022/11/29 00:59:00;;;;;;;101.75;21.00;;;8.80;99.90;;;;;;5112875;28;20074;-65
2022/11/29 01:01:26;;;;;;;98.30;20.85;;;8.80;99.90;;;;;;5106324;28;20493;-65
2022/11/29 01:03:52;;;;;;;98.38;20.50;;;8.80;99.90;;;;;;5109276;28;20027;-65
2022/11/29 01:06:18;;;;;;;96.50;20.77;;;8.80;99.90;;;;;;5104984;28;20123;-65
2022/11/29 01:08:45;;;;;;;112.20;21.65;;;8.80;99.90;;;;;;5111485;28;20040;-65
2022/11/29 01:11:26;;;;;;;98.43;20.75;;;8.70;99.90;;;;;;5110812;28;20090;-63
2022/11/29 01:13:57;;;;;;;88.35;19.58;;;8.80;99.90;;;;;;5119835;27;20435;-63
2022/11/29 01:16:23;;;;;;;96.40;20.27;;;8.80;99.90;;;;;;5109080;28;20051;-64
2022/11/29 01:18:49;;;;;;;109.93;21.58;;;8.80;99.90;;;;;;5108442;28;20516;-64
2022/11/29 01:21:18;;;;;;;94.40;19.80;;;8.80;99.90;;;;;;5107932;28;20032;-64
2022/11/29 01:23:44;;;;;;;95.63;21.13;;;8.80;99.90;;;;;;5111704;28;20084;-64
2022/11/29 01:26:13;;;;;;;98.70;20.65;;;8.80;99.90;;;;;;5111244;28;20036;-64
2022/11/29 01:28:40;;;;;;;107.97;21.80;;;8.80;99.90;;;;;;5109432;28;20173;-64
2022/11/29 01:31:08;;;;;;;113.20;21.65;;;8.80;99.90;;;;;;5111723;28;20051;-64
2022/11/29 01:33:35;;;;;;;118.50;21.05;;;8.80;99.90;;;;;;5107962;28;20032;-64
2022/11/29 01:36:01;;;;;;;121.68;22.73;;;8.80;99.90;;;;;;5108645;28;20491;-64
2022/11/29 01:38:27;;;;;;;122.88;22.30;;;8.80;99.90;;;;;;5111770;28;20047;-64
2022/11/29 01:41:01;;;;;;;127.07;22.58;;;8.80;99.90;;;;;;5106713;28;20038;-64
2022/11/29 01:43:28;;;;;;;114.50;22.58;;;8.80;99.90;;;;;;5111164;28;20042;-64
2022/11/29 01:45:54;;;;;;;118.63;21.92;;;8.80;99.90;;;;;;5108787;28;20120;-64
2022/11/29 01:48:26;;;;;;;135.00;22.70;;;8.80;99.90;;;;;;5108996;28;20075;-64
2022/11/29 01:50:53;;;;;;;151.27;23.45;;;8.80;99.90;;;;;;5108959;28;20040;-65
2022/11/29 01:53:19;;;;;;;131.32;21.67;;;8.80;99.90;;;;;;5112332;28;20050;-64
2022/11/29 01:55:51;;;;;;;116.85;22.23;;;8.80;99.90;;;;;;5110838;28;20073;-64
2022/11/29 01:58:17;;;;;;;126.32;22.90;;;8.80;99.90;;;;;;5109845;28;20027;-65
2022/11/29 02:00:43;;;;;;;135.93;23.73;;;8.80;99.90;;;;;;5111621;28;20097;-65
2022/11/29 02:03:12;;;;;;;109.43;21.85;;;8.80;99.90;;;;;;5109798;28;20054;-65
2022/11/29 02:05:47;;;;;;;114.50;21.08;;;8.80;99.90;;;;;;5105265;28;20039;-64
2022/11/29 02:08:17;;;;;;;108.47;20.42;;;8.80;99.90;;;;;;5106598;28;20040;-64
2022/11/29 02:10:57;;;;;;;108.90;21.35;;;8.80;99.90;;;;;;5111817;28;20027;-65
2022/11/29 02:13:31;;;;;;;117.28;22.15;;;8.80;99.90;;;;;;5109461;28;20046;-64
2022/11/29 02:16:11;;;;;;;105.57;20.83;;;8.80;99.90;;;;;;5105603;28;20512;-64
2022/11/29 02:18:59;;;;;;;103.75;19.88;;;8.80;99.90;;;;;;5111650;28;20130;-64
2022/11/29 02:21:46;;;;;;;92.03;18.25;;;8.80;99.90;;;;;;5110621;28;20166;-64
2022/11/29 02:24:40;;;;;;;92.55;17.88;;;8.80;99.90;;;;;;5110104;28;20044;-64
2022/11/29 02:27:34;;;;;;;94.45;18.83;;;8.80;99.90;;;;;;5108436;28;20047;-65
2022/11/29 02:30:07;;;;;;;83.95;18.33;;;8.80;99.90;;;;;;5112078;28;20050;-64
2022/11/29 02:32:42;;;;;;;81.43;17.85;;;8.70;99.90;;;;;;5109476;28;20039;-64
2022/11/29 02:35:19;;;;;;;91.70;18.75;;;8.70;99.90;;;;;;5108498;28;20043;-64
2022/11/29 02:38:03;;;;;;;95.85;19.08;;;8.70;99.90;;;;;;5108870;28;20039;-65
2022/11/29 02:40:38;;;;;;;84.00;18.17;;;8.80;99.90;;;;;;5110559;28;20040;-64
2022/11/29 02:43:12;;;;;;;82.78;17.95;;;8.70;99.90;;;;;;5109785;28;20039;-64
2022/11/29 02:46:08;;;;;;;86.60;18.88;;;8.70;99.90;;;;;;5107694;28;20032;-64
2022/11/29 02:48:45;;;;;;;91.47;18.30;;;8.70;99.90;;;;;;5109088;28;20507;-64
2022/11/29 02:51:48;;;;;;;83.78;17.85;;;8.70;99.90;;;;;;5110333;28;20043;-64
2022/11/29 02:54:37;;;;;;;96.80;18.90;;;8.70;99.90;;;;;;5107786;28;20063;-64
2022/11/29 02:57:20;;;;;;;94.97;18.40;;;8.70;99.90;;;;;;5104707;28;20554;-64
2022/11/29 03:00:01;;;;;;;93.72;19.60;;;8.70;99.90;;;;;;5109317;28;20031;-64
2022/11/29 03:02:50;;;;;;;113.07;22.38;;;8.70;99.90;;;;;;5110977;28;20039;-64
2022/11/29 03:05:40;;;;;;;111.93;22.23;;;8.70;99.90;;;;;;5107464;28;20063;-64
2022/11/29 03:08:27;;;;;;;108.67;22.13;;;8.70;99.90;;;;;;5109510;28;20039;-64
2022/11/29 03:11:22;;;;;;;131.68;22.42;;;8.70;99.90;;;;;;5112739;28;20533;-65
2022/11/29 03:14:09;;;;;;;106.45;18.50;;;8.70;99.90;;;;;;5113316;28;20055;-64
2022/11/29 03:16:46;;;;;;;132.00;21.25;;;8.70;99.90;;;;;;5112879;28;20043;-64
2022/11/29 03:20:10;;;;;;;113.65;19.80;;;8.60;99.90;;;;;;5111334;28;20048;-64
2022/11/29 03:22:42;;;;;;;138.32;20.27;;;8.60;99.90;;;;;;5069984;28;20046;-64
2022/11/29 03:25:11;;;;;;;86.18;17.05;;;8.60;99.90;;;;;;5099176;28;20082;-64
2022/11/29 03:27:54;;;;;;;117.25;20.48;;;8.50;99.90;;;;;;5114624;28;20035;-64
2022/11/29 03:30:20;;;;;;;69.78;15.60;;;8.50;99.90;;;;;;5115917;28;20039;-64
2022/11/29 03:32:49;;;;;;;78.32;18.23;;;8.40;99.90;;;;;;5113369;28;20488;-64
2022/11/29 03:35:47;;;;;;;78.63;17.33;;;8.40;99.90;;;;;;5106729;28;20043;-64
2022/11/29 03:38:39;;;;;;;77.40;16.30;;;8.40;99.90;;;;;;5112537;28;20035;-64
2022/11/29 03:41:34;;;;;;;70.78;17.20;;;8.40;99.90;;;;;;5108475;28;20043;-64
2022/11/29 03:44:16;;;;;;;66.63;17.55;;;8.40;99.90;;;;;;5113640;28;20060;-64
2022/11/29 03:47:08;;;;;;;53.67;16.25;;;8.40;99.90;;;;;;5111136;28;20458;-64
2022/11/29 03:49:53;;;;;;;74.25;16.88;;;8.30;99.90;;;;;;5106341;28;20542;-64
2022/11/29 03:52:45;;;;;;;59.78;15.18;;;8.30;99.90;;;;;;5114803;28;20031;-64
2022/11/29 03:55:17;;;;;;;64.72;16.08;;;8.20;99.90;;;;;;5113807;28;20118;-64
2022/11/29 03:58:01;;;;;;;61.15;14.40;;;8.20;99.90;;;;;;5113385;28;20496;-64
2022/11/29 04:00:40;;;;;;;50.53;15.60;;;8.20;99.90;;;;;;5114671;28;20538;-64
2022/11/29 04:03:21;;;;;;;60.35;15.65;;;8.20;99.90;;;;;;5113593;28;20452;-64
2022/11/29 04:06:14;;;;;;;53.50;16.38;;;8.20;99.90;;;;;;5105996;28;20067;-64
2022/11/29 04:09:17;;;;;;;53.20;15.88;;;8.20;99.90;;;;;;5114775;27;20047;-64
2022/11/29 04:12:01;;;;;;;58.55;17.73;;;8.20;99.90;;;;;;5112106;28;20044;-64
2022/11/29 04:14:30;;;;;;;61.45;16.52;;;8.20;99.90;;;;;;5101059;28;20043;-64
2022/11/29 04:17:20;;;;;;;86.75;18.45;;;8.20;99.90;;;;;;5114057;28;20051;-64
2022/11/29 04:20:08;;;;;;;76.00;17.67;;;8.20;99.90;;;;;;5101754;22;20094;-68
2022/11/29 04:23:10;;;;;;;77.68;17.90;;;8.20;99.90;;;;;;5070803;28;20037;-68
2022/11/29 04:25:39;;;;;;;63.30;17.27;;;8.20;99.90;;;;;;5071162;28;20037;-68
2022/11/29 04:28:17;;;;;;;77.15;19.30;;;8.20;99.90;;;;;;5065133;28;20052;-68
2022/11/29 04:31:01;;;;;;;69.53;17.15;;;8.20;99.90;;;;;;5053108;28;20441;-68
2022/11/29 04:33:44;;;;;;;65.40;16.80;;;8.20;99.90;;;;;;5051963;28;20124;-68
2022/11/29 04:36:41;;;;;;;68.72;17.50;;;8.20;99.90;;;;;;5052831;28;20045;-68
2022/11/29 04:39:33;;;;;;;83.82;18.50;;;8.20;99.90;;;;;;5043462;28;20090;-68
2022/11/29 04:42:25;;;;;;;61.55;17.65;;;8.20;99.90;;;;;;5050568;28;20033;-68
2022/11/29 04:45:28;;;;;;;73.97;18.63;;;8.20;99.90;;;;;;5046323;28;20049;-68
2022/11/29 04:48:24;;;;;;;78.47;18.13;;;8.20;99.90;;;;;;5039437;28;20029;-68
2022/11/29 04:51:00;;;;;;;96.85;18.77;;;8.20;99.90;;;;;;5051253;28;20035;-68
2022/11/29 04:53:49;;;;;;;63.55;16.98;;;8.10;99.90;;;;;;5052465;28;20029;-68
2022/11/29 04:56:44;;;;;;;90.40;18.42;;;8.10;99.90;;;;;;5051180;28;20052;-68
2022/11/29 04:59:43;;;;;;;68.03;18.13;;;8.10;99.90;;;;;;5050172;28;20080;-69
2022/11/29 05:02:33;;;;;;;112.50;18.23;;;8.10;99.90;;;;;;5041869;28;20507;-68
2022/11/29 05:05:19;;;;;;;62.15;17.45;;;8.10;99.90;;;;;;5049725;28;20390;-68
2022/11/29 05:08:02;;;;;;;95.57;19.38;;;8.10;99.90;;;;;;5052833;28;20506;-68
2022/11/29 05:10:37;;;;;;;83.90;19.48;;;8.10;99.90;;;;;;5044373;28;20032;-67
2022/11/29 05:13:40;;;;;;;108.13;18.55;;;8.10;99.90;;;;;;5050816;28;20397;-68
2022/11/29 05:16:12;;;;;;;117.88;21.63;;;8.10;99.90;;;;;;5048762;28;20040;-68
2022/11/29 05:18:57;;;;;;;98.18;19.02;;;8.10;99.90;;;;;;5049984;28;20072;-68
2022/11/29 05:21:46;;;;;;;99.47;19.70;;;8.10;99.90;;;;;;5049997;28;20044;-68
2022/11/29 05:24:29;;;;;;;164.48;22.58;;;8.10;99.90;;;;;;5046213;28;20475;-68
2022/11/29 05:27:13;;;;;;;133.90;20.92;;;8.20;99.90;;;;;;5046335;28;20119;-68
2022/11/29 05:30:04;;;;;;;129.02;20.85;;;8.10;99.90;;;;;;5049582;28;20555;-68
2022/11/29 05:32:56;;;;;;;94.82;18.33;;;8.10;99.90;;;;;;5047282;28;20393;-68
2022/11/29 05:35:43;;;;;;;83.10;17.27;;;8.10;99.90;;;;;;5044578;28;20515;-68
2022/11/29 05:38:36;;;;;;;120.57;18.92;;;8.10;99.90;;;;;;5051550;28;20041;-68
2022/11/29 05:41:33;;;;;;;105.90;19.90;;;8.00;99.90;;;;;;5051673;28;20041;-68
2022/11/29 05:44:09;;;;;;;96.65;18.70;;;8.10;99.90;;;;;;5045390;28;20048;-68
2022/11/29 05:46:54;;;;;;;87.10;19.17;;;8.00;99.90;;;;;;5051768;28;20033;-68
2022/11/29 05:49:28;;;;;;;91.50;19.15;;;8.00;99.90;;;;;;5052460;28;20171;-68
2022/11/29 05:52:20;;;;;;;80.25;18.98;;;8.00;99.90;;;;;;5051890;28;20041;-68
2022/11/29 05:54:55;;;;;;;92.80;18.60;;;8.00;99.90;;;;;;5046270;28;20052;-69
2022/11/29 05:57:54;;;;;;;64.18;17.95;;;8.00;99.90;;;;;;5050749;28;20144;-68
2022/11/29 06:00:20;;;;;;;108.93;19.20;;;8.10;99.90;;;;;;5038344;28;20036;-68
2022/11/29 06:03:06;;;;;;;113.32;18.90;;;8.10;99.90;;;;;;5050064;28;20055;-68
2022/11/29 06:05:41;;;;;;;62.22;17.30;;;8.10;99.90;;;;;;5047847;28;20033;-68
2022/11/29 06:08:24;;;;;;;97.35;18.60;;;8.00;99.90;;;;;;5045708;28;20116;-68
2022/11/29 06:11:05;;;;;;;97.30;18.35;;;8.00;99.90;;;;;;5048699;28;20391;-68
2022/11/29 06:13:53;;;;;;;102.05;18.67;;;8.10;99.90;;;;;;5051017;28;20032;-68
2022/11/29 06:16:56;;;;;;;96.55;18.45;;;8.00;99.90;;;;;;5050028;28;20052;-68
2022/11/29 06:19:36;;;;;;;85.55;17.73;;;8.00;99.90;;;;;;5049437;28;20041;-68
2022/11/29 06:22:20;;;;;;;102.25;18.35;;;8.00;99.90;;;;;;5042035;28;20449;-68
2022/11/29 06:25:15;;;;;;;95.05;18.13;;;8.00;99.90;;;;;;5050874;28;20040;-68
2022/11/29 06:28:21;;;;;;;94.43;18.25;;;8.00;99.90;;;;;;5047583;28;20503;-68
2022/11/29 06:31:21;;;;;;;95.95;17.20;;;8.00;99.90;;;;;;5047263;28;20044;-68
2022/11/29 06:34:01;;;;;;;99.22;19.27;;;8.00;99.90;;;;;;5041885;28;20849;-68
2022/11/29 06:36:37;;;;;;;80.25;17.77;;;7.90;99.90;;;;;;5048727;28;20076;-68
2022/11/29 06:39:03;;;;;;;67.22;17.45;;;8.00;99.90;;;;;;5051452;28;20041;-68
2022/11/29 06:41:28;;;;;;;87.57;17.27;;;7.90;99.90;;;;;;5048442;28;20041;-68
2022/11/29 06:43:55;;;;;;;115.45;19.73;;;7.90;99.90;;;;;;5049660;28;20631;-68
2022/11/29 06:46:48;;;;;;;83.20;17.73;;;7.90;99.90;;;;;;5049188;28;20043;-68
2022/11/29 06:49:27;;;;;;;113.35;19.13;;;7.90;99.90;;;;;;5033922;28;20053;-68
2022/11/29 06:52:30;;;;;;;63.08;14.52;;;7.90;99.90;;;;;;5049947;28;20072;-68
2022/11/29 06:55:24;;;;;;;60.95;16.73;;;7.90;99.90;;;;;;5046802;28;20037;-68
2022/11/29 06:58:09;;;;;;;48.85;14.40;;;7.80;99.90;;;;;;5050849;28;20044;-68
2022/11/29 07:00:57;;;;;;;66.05;15.60;;;7.80;99.90;;;;;;5041400;28;20041;-68
2022/11/29 07:03:42;;;;;;;54.72;15.60;;;7.80;99.90;;;;;;5043391;28;20576;-68
2022/11/29 07:06:34;;;;;;;81.40;16.38;;;7.80;99.90;;;;;;5046775;28;20048;-68
2022/11/29 07:09:15;;;;;;;71.35;16.67;;;7.80;99.90;;;;;;5041197;28;20392;-68
2022/11/29 07:11:41;;;;;;;71.72;16.20;;;7.80;99.90;;;;;;5045342;28;20041;-68
2022/11/29 07:14:08;;;;;;;71.80;16.23;;;7.80;99.90;;;;;;5046986;28;20049;-68
2022/11/29 07:16:38;;;;;;;92.43;17.38;;;7.80;99.90;;;;;;5043844;28;20152;-68
2022/11/29 07:19:18;;;;;;;74.70;16.02;;;7.80;99.90;;;;;;5045924;28;20406;-68
2022/11/29 07:22:08;;;;;;;77.65;16.15;;;7.80;99.90;;;;;;5047081;28;20367;-68
2022/11/29 07:24:59;;;;;;;78.85;16.40;;;7.80;99.90;;;;;;5047353;28;20951;-68
2022/11/29 07:27:30;;;;;;;;;;;7.80;99.90;;;;;;5046328;28;20498;-68
2022/11/29 07:30:05;;;;;;;89.82;16.60;;;7.70;99.90;;;;;;5041985;28;20378;-68
2022/11/29 07:32:46;;;;;;;56.17;13.25;;;7.70;99.90;;;;;;5048030;28;20041;-68
2022/11/29 07:35:23;;;;;;;68.35;15.43;;;7.70;99.90;;;;;;5042810;28;20037;-68
2022/11/29 07:38:10;;;;;;;78.05;14.90;;;7.60;99.90;;;;;;5047325;28;20037;-68
2022/11/29 07:40:47;;;;;;;55.22;14.82;;;7.60;99.90;;;;;;5042750;28;20041;-68
2022/11/29 07:43:48;;;;;;;66.75;14.63;;;7.60;99.90;;;;;;5050906;28;20099;-68
2022/11/29 07:46:14;;;;;;;56.30;14.45;;;7.60;99.90;;;;;;5045674;28;20604;-68
2022/11/29 07:48:40;;;;;;;79.47;17.27;;;7.60;99.90;;;;;;5051299;28;20045;-68
2022/11/29 07:51:05;;;;;;;79.28;15.98;;;7.70;99.90;;;;;;5047642;28;20036;-68
2022/11/29 07:53:31;;;;;;;66.68;14.85;;;7.70;99.90;;;;;;5045716;28;20033;-68
2022/11/29 07:55:57;;;;;;;51.90;14.75;;;7.70;99.90;;;;;;5051048;28;20087;-68
2022/11/29 07:58:23;;;;;;;64.95;15.43;;;7.70;99.90;;;;;;5047638;28;20128;-68
2022/11/29 08:00:49;;;;;;;47.47;14.65;;;7.80;99.90;;;;;;5049683;28;20510;-69
2022/11/29 08:03:15;;;;;;;121.88;18.60;;;7.80;99.90;;;;;;5052904;28;20045;-68
2022/11/29 08:05:45;;;;;;;59.92;13.70;;;7.80;99.90;;;;;;5052565;28;20087;-68
2022/11/29 08:08:10;;;;;;;52.22;14.27;;;7.80;99.90;;;;;;5054756;28;20033;-68
2022/11/29 08:10:37;;;;;;;53.63;14.30;;;7.80;99.90;;;;;;5052204;28;20036;-68
2022/11/29 08:13:02;;;;;;;57.25;14.65;;;7.80;99.90;;;;;;5052049;28;20045;-68
2022/11/29 08:15:28;;;;;;;55.47;14.23;;;7.80;99.90;;;;;;5046783;28;20048;-68
2022/11/29 08:17:54;;;;;;;72.43;15.93;;;7.80;99.90;;;;;;5048055;28;20439;-68
2022/11/29 08:20:19;;;;;;;80.78;16.13;;;7.80;99.90;;;;;;5050773;28;20555;-68
2022/11/29 08:22:56;;;;;;;63.28;15.07;;;7.80;99.90;;;;;;5049539;28;20068;-68
2022/11/29 08:25:22;;;;;;;61.78;14.85;;;7.80;99.90;;;;;;5052543;28;20564;-68
2022/11/29 08:27:48;;;;;;;53.70;12.82;;;7.80;99.90;;;;;;5051570;28;20041;-68
2022/11/29 08:30:17;;;;;;;73.20;15.40;;;7.70;99.90;;;;;;5050798;28;20574;-69
2022/11/29 08:32:43;;;;;;;91.70;15.60;;;7.70;99.90;;;;;;5050980;28;20033;-68
2022/11/29 08:35:09;;;;;;;53.70;14.90;;;7.70;99.90;;;;;;5051887;28;20033;-68
2022/11/29 08:37:34;;;;;;;65.68;15.25;;;7.70;99.90;;;;;;5053256;28;20498;-68
2022/11/29 08:40:00;;;;;;;69.68;15.40;;;7.70;99.90;;;;;;5050035;28;20641;-68
2022/11/29 08:42:25;;;;;;;89.68;15.77;;;7.70;99.90;;;;;;5057830;28;20056;-68
2022/11/29 08:44:51;;;;;;;46.47;13.63;;;7.70;99.90;;;;;;5050507;28;20033;-68
2022/11/29 08:47:35;;;;;;;56.63;13.90;;;7.80;99.90;;;;;;5053138;28;20037;-68
2022/11/29 08:50:11;;;;;;;47.22;13.25;;;7.70;99.90;;;;;;5051892;28;20045;-68
2022/11/29 08:55:32;;;;;;;67.28;14.82;;;7.80;99.90;;;;;;5050583;28;20106;-68
2022/11/29 08:58:07;;;;;;;46.95;13.40;;;7.80;99.90;;;;;;5052727;28;20116;-68
2022/11/29 09:00:33;;;;;;;42.95;12.63;;;7.80;99.90;;;;;;5047698;28;20036;-68
2022/11/29 09:05:46;;;;;;;44.95;13.90;;;7.80;99.90;;;;;;5049379;28;20095;-68
2022/11/29 09:08:11;;;;;;;50.65;15.18;;;7.80;99.90;;;;;;5050247;28;20055;-68
2022/11/29 09:10:38;;;;;;;67.63;16.23;;;7.90;99.90;;;;;;5048622;28;20406;-68
2022/11/29 09:13:04;;;;;;;52.70;15.55;;;7.90;99.90;;;;;;5049148;28;20037;-68
2022/11/29 09:15:30;;;;;;;59.00;16.35;;;7.90;99.90;;;;;;5051611;28;20413;-69
2022/11/29 09:17:56;;;;;;;59.47;16.50;;;7.90;99.90;;;;;;5049076;28;20037;-68
2022/11/29 09:20:21;;;;;;;43.92;15.18;;;7.90;99.90;;;;;;5051712;28;20041;-68
2022/11/29 09:22:47;;;;;;;45.67;15.23;;;8.00;99.90;;;;;;5049029;28;20056;-68
2022/11/29 09:25:13;;;;;;;52.30;14.90;;;8.00;99.90;;;;;;5050717;28;20071;-68
2022/11/29 09:27:40;;;;;;;48.13;15.85;;;8.10;99.90;;;;;;5050425;28;20122;-68
2022/11/29 09:30:07;;;;;;;47.97;14.73;;;8.10;99.90;;;;;;5052400;28;20068;-68
2022/11/29 09:32:34;;;;;;;49.65;14.40;;;8.10;99.90;;;;;;5047515;28;20389;-68
2022/11/29 09:35:00;;;;;;;49.53;16.48;;;8.10;99.90;;;;;;5051167;28;20076;-68
2022/11/29 09:37:25;;;;;;;46.33;14.73;;;8.10;99.90;;;;;;5042848;28;20072;-68
2022/11/29 09:39:52;;;;;;;42.20;13.98;;;8.10;99.90;;;;;;5049646;28;20528;-69
2022/11/29 09:42:35;;;;;;;49.85;15.05;;;8.10;99.90;;;;;;5036891;28;20044;-68
2022/11/29 09:45:08;;;;;;;51.72;15.38;;;8.10;99.90;;;;;;5047851;28;20044;-67
2022/11/29 09:48:02;;;;;;;46.28;15.27;;;8.10;99.90;;;;;;5043839;28;20605;-67
2022/11/29 09:50:33;;;;;;;42.63;13.05;;;8.20;99.90;;;;;;5049545;28;20123;-68
2022/11/29 09:52:59;;;;;;;41.00;13.80;;;8.20;99.90;;;;;;5042089;28;20075;-67
2022/11/29 09:55:24;;;;;;;41.13;13.63;;;8.20;99.90;;;;;;5047419;28;20513;-68
2022/11/29 09:57:54;;;;;;;43.13;13.73;;;8.20;99.90;;;;;;5050676;28;20041;-67
2022/11/29 10:00:20;;;;;;;38.60;13.77;;;8.20;99.90;;;;;;5046412;28;20051;-69
2022/11/29 10:02:51;;;;;;;44.25;13.52;;;8.20;99.90;;;;;;5042807;28;20029;-68
2022/11/29 10:05:22;;;;;;;41.25;13.70;;;8.30;99.90;;;;;;5046406;28;20528;-68
2022/11/29 10:08:01;;;;;;;43.45;12.40;;;8.30;99.90;;;;;;5049142;28;20037;-67
2022/11/29 10:10:42;;;;;;;38.50;13.35;;;8.30;99.90;;;;;;5048001;28;20505;-68
2022/11/29 10:13:32;;;;;;;45.72;14.68;;;8.30;99.90;;;;;;5048348;28;20045;-68
2022/11/29 10:16:18;;;;;;;46.65;13.10;;;8.30;99.90;;;;;;5046584;28;20039;-68
2022/11/29 10:21:24;;;;;;;39.72;13.98;;;8.40;99.90;;;;;;5066863;28;20049;-65
2022/11/29 10:23:53;;;;;;;41.78;13.70;;;8.40;99.90;;;;;;5053408;28;20029;-65
2022/11/29 10:26:21;;;;;;;45.40;14.63;;;8.40;99.90;;;;;;5070029;28;20046;-65
2022/11/29 10:28:48;;;;;;;40.33;13.30;;;8.40;99.90;;;;;;5070149;28;20138;-65
2022/11/29 10:31:26;;;;;;;44.95;13.95;;;8.40;99.90;;;;;;5053391;28;20090;-65
2022/11/29 10:33:53;;;;;;;36.20;12.85;;;8.40;99.90;;;;;;5071973;28;20124;-65
2022/11/29 10:36:35;;;;;;;45.65;13.73;;;8.40;99.90;;;;;;5051218;28;20047;-65
2022/11/29 10:39:06;;;;;;;36.33;13.65;;;8.50;99.90;;;;;;5052886;28;20072;-65
2022/11/29 10:41:32;;;;;;;37.17;12.43;;;8.50;99.90;;;;;;5071750;28;20036;-65
2022/11/29 10:43:59;;;;;;;33.45;12.00;;;8.50;99.90;;;;;;5066249;28;20139;-65
2022/11/29 10:46:33;;;;;;;38.60;12.18;;;8.50;99.90;;;;;;5067909;28;20033;-65
2022/11/29 10:49:02;;;;;;;32.50;12.68;;;8.50;99.90;;;;;;5053308;28;20040;-65
2022/11/29 10:51:28;;;;;;;35.20;12.02;;;8.50;99.90;;;;;;5071581;28;20047;-65
2022/11/29 10:53:55;;;;;;;38.30;12.48;;;8.60;99.90;;;;;;5052358;28;20071;-65
2022/11/29 10:56:29;;;;;;;35.03;11.93;;;8.50;99.90;;;;;;5051017;28;20551;-65
2022/11/29 10:59:06;;;;;;;36.58;13.25;;;8.60;99.90;;;;;;5061447;28;20052;-65
2022/11/29 11:01:37;;;;;;;30.33;12.32;;;8.60;99.90;;;;;;5052540;28;20591;-64
2022/11/29 11:04:06;;;;;;;34.05;11.98;;;8.60;99.90;;;;;;5071454;28;20036;-65
2022/11/29 11:06:52;;;;;;;30.58;11.45;;;8.60;99.90;;;;;;5068954;28;20028;-65
2022/11/29 11:09:38;;;;;;;38.83;11.63;;;8.70;99.90;;;;;;5052603;28;20040;-65
2022/11/29 11:12:12;;;;;;;36.83;10.73;;;8.70;99.90;;;;;;5045582;28;20452;-65
2022/11/29 11:14:38;;;;;;;30.05;11.43;;;8.70;99.90;;;;;;5051865;28;20436;-65
2022/11/29 11:17:25;;;;;;;30.60;10.68;;;8.70;99.90;;;;;;5069369;28;20040;-65
2022/11/29 11:20:07;;;;;;;31.35;10.77;;;8.70;99.90;;;;;;5069864;28;20049;-65
2022/11/29 11:22:38;;;;;;;33.17;10.90;;;8.70;99.90;;;;;;5067641;28;20119;-65
2022/11/29 11:25:33;;;;;;;26.23;10.13;;;8.80;99.90;;;;;;5056557;28;20101;-65
2022/11/29 11:28:19;;;;;;;23.85;9.68;;;8.70;99.90;;;;;;5051171;28;20062;-65
2022/11/29 11:30:56;;;;;;;22.50;9.57;;;8.80;99.90;;;;;;5067968;28;20043;-65
2022/11/29 11:33:30;;;;;;;22.48;9.07;;;8.80;99.90;;;;;;5071079;28;20054;-65
2022/11/29 11:36:14;;;;;;;26.48;9.43;;;8.70;99.90;;;;;;5059605;28;20177;-65
2022/11/29 11:38:46;;;;;;;23.23;9.73;;;8.80;99.90;;;;;;5064023;28;20465;-65
2022/11/29 11:44:39;;;;;;;21.77;9.35;;;8.70;99.90;;;;;;5066344;28;20098;-65
2022/11/29 11:47:12;;;;;;;20.38;8.77;;;8.70;99.90;;;;;;5052954;28;20037;-65
2022/11/29 11:49:59;;;;;;;21.67;9.27;;;8.80;99.90;;;;;;5073567;28;20084;-64
2022/11/29 11:52:52;;;;;;;23.13;9.18;;;8.80;99.90;;;;;;5070499;28;20041;-64
2022/11/29 11:55:20;;;;;;;21.02;8.40;;;8.70;99.90;;;;;;5067967;28;20409;-64
2022/11/29 11:57:57;;;;;;;23.90;9.32;;;8.80;99.90;;;;;;5072985;28;20044;-64
2022/11/29 12:00:44;;;;;;;21.52;8.35;;;8.80;99.90;;;;;;5055191;28;20049;-64
2022/11/29 12:03:28;;;;;;;23.13;9.05;;;8.80;99.90;;;;;;5052588;28;20052;-64
2022/11/29 12:06:22;;;;;;;21.75;8.70;;;8.80;99.90;;;;;;5065615;28;20502;-64
2022/11/29 12:08:49;;;;;;;21.58;9.02;;;8.80;99.90;;;;;;5053834;28;20040;-64
2022/11/29 12:11:17;;;;;;;24.73;9.55;;;8.80;99.90;;;;;;5053504;28;20095;-65
2022/11/29 12:13:54;;;;;;;23.73;8.77;;;8.80;99.90;;;;;;5071980;28;20551;-65
2022/11/29 12:16:34;;;;;;;17.65;8.13;;;8.80;99.90;;;;;;5070650;28;20036;-64
2022/11/29 12:19:10;;;;;;;20.15;8.38;;;8.80;99.90;;;;;;5053765;28;20036;-64
2022/11/29 12:21:42;;;;;;;21.60;8.55;;;8.80;99.90;;;;;;5055508;28;20116;-64
2022/11/29 12:24:29;;;;;;;22.10;8.48;;;8.80;99.90;;;;;;5066692;28;20060;-65
2022/11/29 12:27:01;;;;;;;22.40;8.60;;;8.80;99.90;;;;;;5071955;28;20075;-64
2022/11/29 12:29:30;;;;;;;21.13;9.10;;;8.80;99.90;;;;;;5072608;28;20043;-64
2022/11/29 12:32:18;;;;;;;24.20;9.15;;;8.80;99.90;;;;;;5071643;28;20442;-64
2022/11/29 12:35:07;;;;;;;20.83;8.52;;;8.80;99.90;;;;;;5071517;28;20490;-64
2022/11/29 12:37:42;;;;;;;17.35;8.35;;;8.80;99.90;;;;;;5055193;28;20040;-64
2022/11/29 12:40:19;;;;;;;21.98;8.90;;;8.80;99.90;;;;;;5071085;28;20115;-64
2022/11/29 12:43:08;;;;;;;24.40;8.77;;;8.90;99.90;;;;;;5072473;28;20036;-65
2022/11/29 12:45:37;;;;;;;28.98;9.32;;;8.90;99.90;;;;;;5073295;28;20044;-64
2022/11/29 12:48:29;;;;;;;26.00;9.82;;;8.90;99.90;;;;;;5055202;28;20048;-64
2022/11/29 12:51:03;;;;;;;25.23;9.68;;;9.00;99.90;;;;;;5065147;28;20064;-65
2022/11/29 12:53:57;;;;;;;31.23;10.27;;;9.00;99.90;;;;;;5071567;28;20493;-64
2022/11/29 12:56:46;;;;;;;28.80;9.38;;;9.00;99.90;;;;;;5071304;28;20048;-64
2022/11/29 12:59:27;;;;;;;24.52;9.73;;;9.10;99.90;;;;;;5052234;28;20048;-64
2022/11/29 13:02:30;;;;;;;26.50;8.68;;;9.10;99.90;;;;;;5062123;28;20060;-65
2022/11/29 13:05:18;;;;;;;21.98;8.18;;;9.10;99.90;;;;;;5064228;28;20097;-64
2022/11/29 13:08:15;;;;;;;25.50;8.57;;;9.20;99.90;;;;;;5069791;28;20448;-64
2022/11/29 13:11:06;;;;;;;27.70;9.32;;;9.30;99.90;;;;;;5068424;28;20094;-64
2022/11/29 13:13:36;;;;;;;20.03;8.60;;;9.20;99.90;;;;;;5054473;28;20082;-64
2022/11/29 13:16:04;;;;;;;24.13;9.25;;;9.30;99.90;;;;;;5070242;28;20040;-65
2022/11/29 13:18:33;;;;;;;26.48;9.32;;;9.30;99.90;;;;;;5070996;28;20044;-64
2022/11/29 13:21:08;;;;;;;28.27;9.57;;;9.30;99.90;;;;;;5072924;28;20040;-63
2022/11/29 13:23:37;;;;;;;30.17;9.48;;;9.30;99.90;;;;;;5072283;28;20417;-64
2022/11/29 13:26:08;;;;;;;27.38;10.65;;;9.30;99.90;;;;;;5069512;28;20398;-64
2022/11/29 13:28:38;;;;;;;33.90;10.52;;;9.30;99.90;;;;;;5071296;28;20044;-64
2022/11/29 13:31:11;;;;;;;29.13;10.07;;;9.30;99.90;;;;;;5051464;28;20044;-64
2022/11/29 13:33:56;;;;;;;30.15;9.57;;;9.30;99.90;;;;;;5070414;28;20036;-64
2022/11/29 13:36:40;;;;;;;30.60;10.75;;;9.30;99.90;;;;;;5065977;28;20089;-64